sensor_id;sensor_type;location;lat;lon;timestamp;pressure;altitude;pressure_sealevel;temperature;humidity
24302;BME280;12421;49.732;20.078;2023-04-26T00:09:13;96179.20;;;6.96;80.94
24302;BME280;12421;49.732;20.078;2023-04-26T00:19:16;96186.42;;;7.07;80.64
24302;BME280;12421;49.732;20.078;2023-04-26T00:29:20;96187.59;;;7.14;80.36
24302;BME280;12421;49.732;20.078;2023-04-26T00:39:24;96190.91;;;7.12;79.34
24302;BME280;12421;49.732;20.078;2023-04-26T00:49:27;96197.20;;;7.10;78.27
24302;BME280;12421;49.732;20.078;2023-04-26T00:59:30;96202.42;;;7.12;77.88
24302;BME280;12421;49.732;20.078;2023-04-26T01:09:34;96207.06;;;7.02;77.60
24302;BME280;12421;49.732;20.078;2023-04-26T01:19:48;96205.10;;;6.88;76.79
24302;BME280;12421;49.732;20.078;2023-04-26T01:29:52;96209.18;;;6.78;76.34
24302;BME280;12421;49.732;20.078;2023-04-26T01:39:56;96212.17;;;6.75;75.22
24302;BME280;12421;49.732;20.078;2023-04-26T01:49:59;96222.52;;;6.70;75.09
24302;BME280;12421;49.732;20.078;2023-04-26T02:00:02;96232.75;;;6.51;74.94
24302;BME280;12421;49.732;20.078;2023-04-26T02:10:14;96237.55;;;6.35;75.30
24302;BME280;12421;49.732;20.078;2023-04-26T02:20:20;96246.28;;;6.31;75.53
24302;BME280;12421;49.732;20.078;2023-04-26T02:30:23;96246.34;;;6.22;75.91
24302;BME280;12421;49.732;20.078;2023-04-26T02:40:26;96249.29;;;6.23;77.55
24302;BME280;12421;49.732;20.078;2023-04-26T02:50:30;96246.12;;;6.29;77.91
24302;BME280;12421;49.732;20.078;2023-04-26T03:00:33;96252.29;;;6.17;76.63
24302;BME280;12421;49.732;20.078;2023-04-26T03:10:37;96263.53;;;5.95;75.13
24302;BME280;12421;49.732;20.078;2023-04-26T03:20:40;96264.24;;;5.89;74.59
24302;BME280;12421;49.732;20.078;2023-04-26T03:30:44;96279.89;;;5.97;74.60
24302;BME280;12421;49.732;20.078;2023-04-26T03:40:48;96293.34;;;5.78;73.62
24302;BME280;12421;49.732;20.078;2023-04-26T03:50:52;96303.64;;;5.63;73.81
24302;BME280;12421;49.732;20.078;2023-04-26T04:00:56;96313.60;;;5.50;74.81
24302;BME280;12421;49.732;20.078;2023-04-26T04:11:00;96324.20;;;5.40;75.66
24302;BME280;12421;49.732;20.078;2023-04-26T04:21:05;96326.11;;;5.35;75.68
24302;BME280;12421;49.732;20.078;2023-04-26T04:31:09;96336.05;;;5.51;74.68
24302;BME280;12421;49.732;20.078;2023-04-26T04:41:12;96353.10;;;5.50;74.23
24302;BME280;12421;49.732;20.078;2023-04-26T04:51:16;96368.42;;;5.38;74.34
24302;BME280;12421;49.732;20.078;2023-04-26T05:01:20;96370.86;;;5.41;73.74
24302;BME280;12421;49.732;20.078;2023-04-26T05:11:28;96380.94;;;5.80;73.63
24302;BME280;12421;49.732;20.078;2023-04-26T05:21:31;96393.73;;;6.38;71.62
24302;BME280;12421;49.732;20.078;2023-04-26T05:31:35;96403.37;;;6.69;70.43
24302;BME280;12421;49.732;20.078;2023-04-26T05:41:57;96400.55;;;6.74;69.88
24302;BME280;12421;49.732;20.078;2023-04-26T05:52:00;96403.94;;;7.25;69.28
24302;BME280;12421;49.732;20.078;2023-04-26T06:02:05;96415.80;;;7.50;67.42
24302;BME280;12421;49.732;20.078;2023-04-26T06:12:09;96419.11;;;7.75;67.05
24302;BME280;12421;49.732;20.078;2023-04-26T06:22:15;96428.92;;;7.91;65.85
24302;BME280;12421;49.732;20.078;2023-04-26T06:32:19;96429.52;;;8.22;64.90
24302;BME280;12421;49.732;20.078;2023-04-26T06:42:22;96423.56;;;8.71;64.28
24302;BME280;12421;49.732;20.078;2023-04-26T06:52:49;96426.39;;;10.25;62.46
24302;BME280;12421;49.732;20.078;2023-04-26T07:02:52;96431.80;;;10.46;58.38
24302;BME280;12421;49.732;20.078;2023-04-26T07:12:55;96425.30;;;10.47;58.97
24302;BME280;12421;49.732;20.078;2023-04-26T07:22:59;96419.41;;;10.79;58.04
24302;BME280;12421;49.732;20.078;2023-04-26T07:33:02;96423.92;;;10.72;57.13
24302;BME280;12421;49.732;20.078;2023-04-26T07:43:06;96431.45;;;10.65;56.71
24302;BME280;12421;49.732;20.078;2023-04-26T07:53:09;96448.27;;;10.08;56.51
24302;BME280;12421;49.732;20.078;2023-04-26T08:03:15;96447.01;;;10.31;54.46
24302;BME280;12421;49.732;20.078;2023-04-26T08:13:20;96458.33;;;10.26;55.94
24302;BME280;12421;49.732;20.078;2023-04-26T08:23:23;96463.39;;;10.16;55.24
24302;BME280;12421;49.732;20.078;2023-04-26T08:45:03;96463.27;;;10.53;55.66
24302;BME280;12421;49.732;20.078;2023-04-26T08:55:26;96473.49;;;10.20;54.76
24302;BME280;12421;49.732;20.078;2023-04-26T09:05:32;96477.92;;;9.47;54.18
24302;BME280;12421;49.732;20.078;2023-04-26T09:15:36;96478.44;;;9.61;55.68
24302;BME280;12421;49.732;20.078;2023-04-26T09:25:40;96465.57;;;10.21;55.00
24302;BME280;12421;49.732;20.078;2023-04-26T09:35:43;96475.46;;;10.39;53.51
24302;BME280;12421;49.732;20.078;2023-04-26T09:45:47;96472.88;;;10.25;53.59
24302;BME280;12421;49.732;20.078;2023-04-26T09:55:54;96471.04;;;10.60;50.89
24302;BME280;12421;49.732;20.078;2023-04-26T10:05:57;96479.95;;;10.00;52.71
24302;BME280;12421;49.732;20.078;2023-04-26T10:16:01;96475.05;;;9.77;55.05
24302;BME280;12421;49.732;20.078;2023-04-26T10:26:05;96472.64;;;9.85;55.41
24302;BME280;12421;49.732;20.078;2023-04-26T10:36:10;96463.98;;;10.24;54.34
24302;BME280;12421;49.732;20.078;2023-04-26T10:46:40;96499.02;;;9.42;55.26
24302;BME280;12421;49.732;20.078;2023-04-26T11:06:52;96502.64;;;8.60;55.54
24302;BME280;12421;49.732;20.078;2023-04-26T11:16:56;96513.91;;;8.69;55.71
24302;BME280;12421;49.732;20.078;2023-04-26T11:26:59;96522.52;;;8.83;53.84
24302;BME280;12421;49.732;20.078;2023-04-26T11:37:03;96522.11;;;9.18;53.95
24302;BME280;12421;49.732;20.078;2023-04-26T11:47:08;96528.30;;;9.55;53.97
24302;BME280;12421;49.732;20.078;2023-04-26T11:57:13;96530.50;;;9.73;53.91
24302;BME280;12421;49.732;20.078;2023-04-26T12:07:19;96524.96;;;10.27;51.41
24302;BME280;12421;49.732;20.078;2023-04-26T12:17:27;96531.96;;;10.29;51.33
24302;BME280;12421;49.732;20.078;2023-04-26T12:27:30;96535.28;;;9.93;50.53
24302;BME280;12421;49.732;20.078;2023-04-26T12:37:34;96539.02;;;10.02;50.67
24302;BME280;12421;49.732;20.078;2023-04-26T12:47:37;96541.37;;;10.33;50.03
24302;BME280;12421;49.732;20.078;2023-04-26T12:57:42;96532.20;;;10.66;48.85
24302;BME280;12421;49.732;20.078;2023-04-26T13:07:46;96542.83;;;10.40;48.81
24302;BME280;12421;49.732;20.078;2023-04-26T13:17:49;96548.49;;;9.89;47.75
24302;BME280;12421;49.732;20.078;2023-04-26T13:27:52;96536.68;;;10.07;45.08
24302;BME280;12421;49.732;20.078;2023-04-26T13:37:57;96526.76;;;10.25;45.74
24302;BME280;12421;49.732;20.078;2023-04-26T13:48:00;96541.63;;;10.04;46.17
24302;BME280;12421;49.732;20.078;2023-04-26T13:58:03;96565.85;;;9.76;46.90
24302;BME280;12421;49.732;20.078;2023-04-26T14:08:06;96563.89;;;9.67;46.58
24302;BME280;12421;49.732;20.078;2023-04-26T14:18:10;96562.08;;;9.70;46.80
24302;BME280;12421;49.732;20.078;2023-04-26T14:28:13;96564.77;;;9.66;46.24
24302;BME280;12421;49.732;20.078;2023-04-26T14:38:18;96562.51;;;9.90;46.66
24302;BME280;12421;49.732;20.078;2023-04-26T14:48:22;96569.90;;;10.01;45.63
24302;BME280;12421;49.732;20.078;2023-04-26T14:58:25;96590.70;;;10.06;46.67
24302;BME280;12421;49.732;20.078;2023-04-26T15:08:29;96583.91;;;10.15;46.10
24302;BME280;12421;49.732;20.078;2023-04-26T15:18:32;96580.21;;;10.40;45.12
24302;BME280;12421;49.732;20.078;2023-04-26T15:28:35;96573.23;;;10.68;45.71
24302;BME280;12421;49.732;20.078;2023-04-26T15:38:39;96580.94;;;10.69;44.64
24302;BME280;12421;49.732;20.078;2023-04-26T15:48:46;96585.08;;;10.74;44.59
24302;BME280;12421;49.732;20.078;2023-04-26T15:58:49;96602.34;;;10.60;43.14
24302;BME280;12421;49.732;20.078;2023-04-26T16:08:57;96618.81;;;10.02;43.33
24302;BME280;12421;49.732;20.078;2023-04-26T16:19:40;96643.26;;;9.54;44.86
24302;BME280;12421;49.732;20.078;2023-04-26T16:30:05;96629.15;;;9.14;45.94
24302;BME280;12421;49.732;20.078;2023-04-26T16:40:12;96629.75;;;8.69;46.98
24302;BME280;12421;49.732;20.078;2023-04-26T16:50:25;96649.76;;;8.38;49.40
24302;BME280;12421;49.732;20.078;2023-04-26T17:00:28;96649.27;;;8.34;49.65
24302;BME280;12421;49.732;20.078;2023-04-26T17:10:36;96656.36;;;8.14;49.09
24302;BME280;12421;49.732;20.078;2023-04-26T17:20:43;96671.75;;;7.77;50.44
24302;BME280;12421;49.732;20.078;2023-04-26T17:30:48;96684.10;;;7.39;51.88
24302;BME280;12421;49.732;20.078;2023-04-26T17:40:56;96682.93;;;7.15;54.45
24302;BME280;12421;49.732;20.078;2023-04-26T17:51:06;96697.10;;;6.91;55.44
24302;BME280;12421;49.732;20.078;2023-04-26T18:01:22;96707.39;;;6.74;56.46
24302;BME280;12421;49.732;20.078;2023-04-26T18:11:25;96718.70;;;6.50;58.39
24302;BME280;12421;49.732;20.078;2023-04-26T18:21:29;96732.19;;;6.05;59.38
24302;BME280;12421;49.732;20.078;2023-04-26T18:31:33;96745.52;;;5.56;60.24
24302;BME280;12421;49.732;20.078;2023-04-26T18:41:37;96770.54;;;5.00;62.04
24302;BME280;12421;49.732;20.078;2023-04-26T18:51:42;96781.08;;;4.71;63.38
24302;BME280;12421;49.732;20.078;2023-04-26T19:02:06;96790.44;;;4.67;64.06
24302;BME280;12421;49.732;20.078;2023-04-26T19:12:48;96801.43;;;4.72;65.40
24302;BME280;12421;49.732;20.078;2023-04-26T19:22:56;96808.70;;;4.69;65.83
24302;BME280;12421;49.732;20.078;2023-04-26T19:32:59;96811.91;;;4.60;66.33
24302;BME280;12421;49.732;20.078;2023-04-26T19:43:03;96815.88;;;4.57;67.16
24302;BME280;12421;49.732;20.078;2023-04-26T19:53:07;96808.23;;;4.56;67.54
24302;BME280;12421;49.732;20.078;2023-04-26T20:03:11;96812.30;;;4.63;68.04
24302;BME280;12421;49.732;20.078;2023-04-26T20:13:15;96817.41;;;4.69;68.07
24302;BME280;12421;49.732;20.078;2023-04-26T20:23:18;96818.17;;;4.77;68.55
24302;BME280;12421;49.732;20.078;2023-04-26T20:33:21;96827.47;;;4.84;68.66
24302;BME280;12421;49.732;20.078;2023-04-26T20:43:24;96827.63;;;4.83;69.39
24302;BME280;12421;49.732;20.078;2023-04-26T20:53:27;96824.14;;;4.81;69.53
24302;BME280;12421;49.732;20.078;2023-04-26T21:03:31;96830.86;;;4.59;69.17
24302;BME280;12421;49.732;20.078;2023-04-26T21:13:34;96840.07;;;4.28;69.66
24302;BME280;12421;49.732;20.078;2023-04-26T21:23:37;96844.59;;;4.15;69.92
24302;BME280;12421;49.732;20.078;2023-04-26T21:33:40;96853.69;;;4.05;70.36
24302;BME280;12421;49.732;20.078;2023-04-26T21:43:44;96856.67;;;3.84;70.96
24302;BME280;12421;49.732;20.078;2023-04-26T21:53:47;96864.93;;;3.77;71.54
24302;BME280;12421;49.732;20.078;2023-04-26T22:03:50;96875.45;;;3.72;71.79
24302;BME280;12421;49.732;20.078;2023-04-26T22:13:54;96885.42;;;3.55;71.84
24302;BME280;12421;49.732;20.078;2023-04-26T22:23:57;96896.77;;;3.27;72.41
24302;BME280;12421;49.732;20.078;2023-04-26T22:34:00;96900.66;;;3.02;72.87
24302;BME280;12421;49.732;20.078;2023-04-26T22:44:04;96909.48;;;2.80;73.58
24302;BME280;12421;49.732;20.078;2023-04-26T22:54:07;96914.55;;;2.66;73.71
24302;BME280;12421;49.732;20.078;2023-04-26T23:04:10;96914.56;;;2.57;74.39
24302;BME280;12421;49.732;20.078;2023-04-26T23:14:13;96918.73;;;2.58;74.52
24302;BME280;12421;49.732;20.078;2023-04-26T23:24:17;96919.52;;;2.54;74.83
24302;BME280;12421;49.732;20.078;2023-04-26T23:34:21;96925.98;;;2.47;74.71
24302;BME280;12421;49.732;20.078;2023-04-26T23:44:24;96925.57;;;2.44;75.13
24302;BME280;12421;49.732;20.078;2023-04-26T23:54:27;96929.83;;;2.33;75.23
